Airfield :
LOGIN :

Register | Disclaimer

   EN    FR    IT 

 










Legend :    VFR   Marginal VFR   IFR   Intensive IFR   Very Intensive IFR
Visi :
Ceiling :
>= 8 km
>= 3000ft
5 to 8 km
1000 to 3000 ft
1500m to 5 km
500 to 1000 ft
800 to 1500m
200 to 500 ft
< 800m
< 200 ft
Symbols :   Thunderstorms  Fog  Heavy snow  Heavy precipitations  Wind > 20 kt
SIGMETs :     Misc.  Thunderstorms  Icing  Turbulence  Mountain Waves  Volcanic Ashes






- Airport Elevation : 681 ft
- IATA code : OSL


ENGM - Oslo Gardermoen

CURRENT METAR :
  • 250250Z 02004KT CAVOK 09/08 Q1021

EXPIRED METARs :
  • 250220Z 01002KT CAVOK 09/08 Q1021
  • 250150Z 34004KT CAVOK 10/08 Q1020
  • 250120Z 34005KT CAVOK 09/08 Q1020
  • 250050Z 01005KT CAVOK 09/07 Q1019
  • 250020Z 01006KT CAVOK 09/08 Q1019
  • 242350Z 36005KT CAVOK 09/08 Q1018

TAF TAF ENGM
Valid from the 25 at 00:00 until the 26 at 00:00 UTC


2500/2524 01005KT 9999 FEW010 SCT050



MET'MAP, your aeronautical weather chart ! - Copyright ORBIFLY December 2007 - Disclaimer

ORBIFLY MET'MAP TEAM :

Programming & Development : Alexandra Zaïnal
Concept & original design : Baudouin d'Aumeries
Assistance for programming : Marc-Olivier Méhu
Technical & hardware support : Manuel Goepfert

Contact : metmap@orbifly.com




SOURCES & CREDITS :

   NOAA